Time;durP1;ratioP1;P1;durP2;ratioP2;P2;SDS_P1;SDS_P2;PMS_P1;PMS_P2;Temp;Humidity;BMP_temperature;BMP_pressure;BME280_temperature;BME280_humidity;BME280_pressure;Samples;Min_cycle;Max_cycle;Signal;HPM_P1;HPM_P2
2022/09/10 00:02:06;;;;;;;7.60;2.27;;;17.10;99.90;;;;;;5095067;28;20389;-79
2022/09/10 00:04:51;;;;;;;1.93;1.40;;;17.20;99.90;;;;;;5084435;28;20513;-81
2022/09/10 00:07:36;;;;;;;2.93;1.50;;;17.20;99.90;;;;;;5084133;28;20451;-80
2022/09/10 00:10:21;;;;;;;1.70;1.53;;;17.20;99.90;;;;;;5083883;28;20397;-81
2022/09/10 00:13:08;;;;;;;1.47;1.37;;;17.30;99.90;;;;;;5085353;28;20396;-81
2022/09/10 00:15:53;;;;;;;2.00;1.73;;;17.20;99.90;;;;;;5085275;28;20452;-80
2022/09/10 00:18:39;;;;;;;1.40;1.20;;;17.20;99.90;;;;;;5085051;28;20457;-81
2022/09/10 00:21:24;;;;;;;6.73;2.50;;;17.10;99.90;;;;;;5084951;28;20472;-81
2022/09/10 00:24:09;;;;;;;1.30;1.20;;;17.20;99.90;;;;;;5084452;28;20461;-81
2022/09/10 00:26:53;;;;;;;3.53;1.40;;;17.10;99.90;;;;;;5083354;28;20433;-81
2022/09/10 00:29:38;;;;;;;2.40;1.77;;;17.20;99.90;;;;;;5070122;28;20289;-80
2022/09/10 00:32:23;;;;;;;6.13;2.73;;;17.10;99.90;;;;;;5097720;28;20388;-81
2022/09/10 00:35:08;;;;;;;1.50;1.40;;;17.00;99.90;;;;;;5084645;28;20389;-81
2022/09/10 00:37:52;;;;;;;3.43;1.20;;;17.10;99.90;;;;;;5084025;28;20443;-80
2022/09/10 00:40:37;;;;;;;1.30;1.20;;;16.80;99.90;;;;;;5085029;28;20491;-80
2022/09/10 00:43:22;;;;;;;1.60;1.47;;;16.70;99.90;;;;;;5086879;28;20751;-79
2022/09/10 00:46:07;;;;;;;1.73;1.63;;;16.80;99.90;;;;;;5094044;28;20364;-79
2022/09/10 00:48:56;;;;;;;5.97;1.60;;;16.80;99.90;;;;;;5089320;28;20410;-81
2022/09/10 00:51:42;;;;;;;3.30;1.20;;;16.80;99.90;;;;;;5071833;28;20701;-81
2022/09/10 00:54:27;;;;;;;6.50;1.60;;;16.80;99.90;;;;;;5086107;28;20424;-81
2022/09/10 00:57:19;;;;;;;5.33;2.20;;;16.60;99.90;;;;;;5085402;28;20417;-81
2022/09/10 01:00:11;;;;;;;1.40;1.20;;;16.60;99.90;;;;;;5070715;28;20472;-81
2022/09/10 01:02:55;;;;;;;7.40;2.07;;;16.70;99.90;;;;;;5089843;28;20787;-81
2022/09/10 01:05:43;;;;;;;2.30;1.70;;;16.90;99.90;;;;;;5089828;28;20408;-81
2022/09/10 01:08:28;;;;;;;1.77;1.30;;;16.70;99.90;;;;;;5089896;28;20377;-83
2022/09/10 01:11:36;;;;;;;1.77;1.50;;;16.70;99.90;;;;;;5088503;28;20385;-81
2022/09/10 01:14:48;;;;;;;3.47;1.63;;;16.60;99.90;;;;;;5089167;28;20385;-81
2022/09/10 01:17:59;;;;;;;1.47;1.37;;;16.60;99.90;;;;;;5088394;28;20920;-81
2022/09/10 01:20:57;;;;;;;4.60;1.83;;;16.70;99.90;;;;;;5089082;28;20560;-81
2022/09/10 01:24:13;;;;;;;3.00;1.90;;;16.70;99.90;;;;;;5088652;28;20374;-82
2022/09/10 01:27:29;;;;;;;2.13;1.40;;;16.70;99.90;;;;;;5088586;28;20439;-81
2022/09/10 01:30:19;;;;;;;2.77;1.80;;;16.70;99.90;;;;;;5088065;28;20381;-81
2022/09/10 01:33:14;;;;;;;1.30;1.20;;;16.90;99.90;;;;;;5088180;28;20389;-82
2022/09/10 01:36:05;;;;;;;1.67;1.57;;;16.50;99.90;;;;;;5088175;28;20932;-81
2022/09/10 01:38:50;;;;;;;1.30;1.20;;;16.60;99.90;;;;;;5073295;28;20404;-81
2022/09/10 01:41:35;;;;;;;1.40;1.30;;;16.40;99.90;;;;;;5088065;28;20439;-81
2022/09/10 01:44:41;;;;;;;1.60;1.50;;;16.40;99.90;;;;;;5087904;28;20417;-81
2022/09/10 01:47:56;;;;;;;1.50;1.40;;;16.30;99.90;;;;;;5087412;28;20393;-81
2022/09/10 01:50:56;;;;;;;3.10;1.93;;;16.30;99.90;;;;;;5087611;28;20417;-81
2022/09/10 01:54:04;;;;;;;4.93;1.40;;;16.20;99.90;;;;;;5072716;28;20421;-81
2022/09/10 01:57:05;;;;;;;2.03;1.63;;;16.40;99.90;;;;;;5087095;28;20451;-82
2022/09/10 02:00:14;;;;;;;2.70;1.33;;;16.60;99.90;;;;;;5073087;28;20452;-81
2022/09/10 02:03:10;;;;;;;1.43;1.30;;;16.70;99.90;;;;;;5076778;28;20768;-82
2022/09/10 02:05:56;;;;;;;4.20;3.70;;;16.70;99.90;;;;;;5065393;28;20405;-81
2022/09/10 02:08:45;;;;;;;3.27;1.40;;;16.60;99.90;;;;;;5065368;28;20780;-82
2022/09/10 02:11:41;;;;;;;1.77;1.30;;;16.60;99.90;;;;;;5079794;28;20398;-80
2022/09/10 02:14:26;;;;;;;1.30;1.20;;;16.50;99.90;;;;;;5065121;28;20412;-81
2022/09/10 02:17:11;;;;;;;3.40;2.00;;;16.50;99.90;;;;;;5066408;28;20446;-82
2022/09/10 02:19:57;;;;;;;1.73;1.10;;;16.60;99.90;;;;;;5066076;28;20524;-81
2022/09/10 02:22:49;;;;;;;1.40;1.30;;;16.70;99.90;;;;;;5065788;28;20756;-81
2022/09/10 02:25:36;;;;;;;1.97;1.50;;;16.80;99.90;;;;;;5065916;28;20393;-81
2022/09/10 02:28:20;;;;;;;2.30;1.30;;;16.80;99.90;;;;;;5065613;28;20425;-82
2022/09/10 02:31:05;;;;;;;1.47;1.37;;;16.60;99.90;;;;;;5065233;28;20767;-81
2022/09/10 02:33:50;;;;;;;1.93;1.67;;;16.50;99.90;;;;;;5080630;28;20750;-81
2022/09/10 02:36:35;;;;;;;1.40;1.30;;;16.50;99.90;;;;;;5087149;28;20380;-82
2022/09/10 02:39:19;;;;;;;1.50;1.27;;;16.70;99.90;;;;;;5087002;28;20475;-80
2022/09/10 02:42:05;;;;;;;1.60;1.50;;;16.70;99.90;;;;;;5088393;28;20408;-80
2022/09/10 02:44:50;;;;;;;4.47;1.40;;;16.70;99.90;;;;;;5089168;28;20385;-80
2022/09/10 02:47:35;;;;;;;1.70;1.27;;;16.70;99.90;;;;;;5075175;28;20742;-80
2022/09/10 02:50:19;;;;;;;1.93;1.30;;;16.70;99.90;;;;;;5090022;28;20389;-80
2022/09/10 02:53:05;;;;;;;3.13;1.50;;;16.60;99.90;;;;;;5075751;28;20451;-80
2022/09/10 02:55:51;;;;;;;3.00;1.37;;;16.70;99.90;;;;;;5087205;28;20447;-80
2022/09/10 02:58:35;;;;;;;1.40;1.30;;;16.70;99.90;;;;;;5086369;28;20388;-80
2022/09/10 03:01:21;;;;;;;1.33;1.10;;;16.60;99.90;;;;;;5087065;28;20745;-80
2022/09/10 03:04:06;;;;;;;4.70;1.30;;;16.60;99.90;;;;;;5086034;28;20543;-78
2022/09/10 03:06:52;;;;;;;1.53;1.43;;;16.60;99.90;;;;;;5086325;28;20373;-80
2022/09/10 03:09:39;;;;;;;2.43;2.03;;;16.50;99.90;;;;;;5085946;28;20464;-80
2022/09/10 03:12:24;;;;;;;1.83;1.20;;;16.50;99.90;;;;;;5086088;28;20377;-81
2022/09/10 03:15:09;;;;;;;3.57;1.50;;;16.60;99.90;;;;;;5086038;28;20459;-79
2022/09/10 03:17:54;;;;;;;1.50;1.40;;;16.40;99.90;;;;;;5086608;28;20547;-79
2022/09/10 03:20:40;;;;;;;2.47;1.47;;;16.40;99.90;;;;;;5086096;28;20440;-81
2022/09/10 03:23:27;;;;;;;2.60;1.93;;;16.40;99.90;;;;;;5085805;28;20482;-81
2022/09/10 03:26:13;;;;;;;7.20;1.53;;;16.40;99.90;;;;;;5086571;28;20520;-82
2022/09/10 03:28:58;;;;;;;13.23;1.77;;;16.40;99.90;;;;;;5086402;28;20390;-80
2022/09/10 03:31:43;;;;;;;1.30;1.20;;;16.30;99.90;;;;;;5071684;28;20389;-81
2022/09/10 03:34:28;;;;;;;1.97;1.50;;;16.40;99.90;;;;;;5086624;28;20381;-81
2022/09/10 03:37:13;;;;;;;2.07;1.53;;;16.30;99.90;;;;;;5070332;28;20380;-81
2022/09/10 03:39:58;;;;;;;2.40;1.30;;;16.30;99.90;;;;;;5085995;28;20460;-81
2022/09/10 03:42:42;;;;;;;1.60;1.30;;;16.20;99.90;;;;;;5086185;28;20393;-81
2022/09/10 03:45:28;;;;;;;2.30;1.83;;;16.20;99.90;;;;;;5085864;28;20412;-81
2022/09/10 03:48:13;;;;;;;3.50;1.43;;;16.20;99.90;;;;;;5087861;28;20465;-82
2022/09/10 03:50:57;;;;;;;2.37;1.87;;;16.00;99.90;;;;;;5070001;28;20417;-80
2022/09/10 03:53:42;;;;;;;1.70;1.50;;;16.00;99.90;;;;;;5084365;28;20472;-82
2022/09/10 03:56:27;;;;;;;3.47;1.53;;;15.90;99.90;;;;;;5098679;28;20838;-81
2022/09/10 03:59:12;;;;;;;3.43;1.50;;;16.10;99.90;;;;;;5103650;28;20528;-81
2022/09/10 04:01:57;;;;;;;1.90;1.50;;;15.80;99.90;;;;;;5103889;28;20396;-82
2022/09/10 04:04:41;;;;;;;2.47;1.30;;;15.90;99.90;;;;;;5104100;28;20408;-81
2022/09/10 04:07:25;;;;;;;1.50;1.40;;;16.00;99.90;;;;;;5089958;28;20484;-81
2022/09/10 04:10:12;;;;;;;2.17;1.30;;;16.00;99.90;;;;;;5090407;28;20404;-81
2022/09/10 04:12:56;;;;;;;1.53;1.43;;;16.20;99.90;;;;;;5103136;28;20495;-82
2022/09/10 04:15:45;;;;;;;3.40;1.50;;;16.10;99.90;;;;;;5104092;28;20404;-82
2022/09/10 04:18:30;;;;;;;3.37;1.40;;;16.10;99.90;;;;;;5104112;28;20963;-81
2022/09/10 04:21:15;;;;;;;1.50;1.40;;;16.20;99.90;;;;;;5104326;28;20424;-82
2022/09/10 04:24:00;;;;;;;2.00;1.60;;;16.20;99.90;;;;;;5105721;28;20717;-82
2022/09/10 04:26:45;;;;;;;3.30;1.93;;;16.30;99.90;;;;;;5105607;28;20381;-82
2022/09/10 04:29:31;;;;;;;1.50;1.40;;;16.30;99.90;;;;;;5104533;28;20387;-82
2022/09/10 04:32:15;;;;;;;1.77;1.53;;;16.30;99.90;;;;;;5107733;28;20541;-79
2022/09/10 04:35:01;;;;;;;2.03;1.70;;;16.30;99.90;;;;;;5115408;28;20384;-79
2022/09/10 04:37:45;;;;;;;1.87;1.30;;;16.10;99.90;;;;;;5113450;28;20446;-82
2022/09/10 04:40:30;;;;;;;1.87;1.30;;;15.80;99.90;;;;;;5110854;28;20470;-81
2022/09/10 04:43:16;;;;;;;3.67;1.83;;;16.00;99.90;;;;;;5111687;28;20384;-82
2022/09/10 04:46:00;;;;;;;2.43;1.40;;;16.00;99.90;;;;;;5110777;28;20380;-81
2022/09/10 04:48:45;;;;;;;1.63;1.40;;;16.00;99.90;;;;;;5108579;28;20422;-81
2022/09/10 04:51:30;;;;;;;2.20;1.60;;;16.10;99.90;;;;;;5109435;28;20383;-81
2022/09/10 04:54:14;;;;;;;4.80;1.30;;;16.10;99.90;;;;;;5109582;28;20395;-82
2022/09/10 04:56:59;;;;;;;1.70;1.30;;;15.90;99.90;;;;;;5109131;28;20424;-81
2022/09/10 04:59:44;;;;;;;1.37;1.20;;;15.90;99.90;;;;;;5109108;28;20443;-81
2022/09/10 05:02:28;;;;;;;2.37;1.40;;;15.90;99.90;;;;;;5109512;28;20388;-82
2022/09/10 05:05:13;;;;;;;2.13;1.50;;;16.00;99.90;;;;;;5109066;28;20940;-81
2022/09/10 05:07:59;;;;;;;2.37;1.87;;;15.90;99.90;;;;;;5109598;28;20427;-82
2022/09/10 05:10:44;;;;;;;1.63;1.20;;;16.00;99.90;;;;;;5109281;28;20453;-82
2022/09/10 05:13:30;;;;;;;2.67;1.90;;;16.00;99.90;;;;;;5109381;28;20440;-82
2022/09/10 05:16:15;;;;;;;5.17;2.10;;;16.10;99.90;;;;;;5110385;28;20791;-81
2022/09/10 05:18:59;;;;;;;3.20;2.10;;;15.90;99.90;;;;;;5129670;28;20413;-82
2022/09/10 05:21:44;;;;;;;2.43;1.37;;;16.10;99.90;;;;;;5114292;28;20380;-81
2022/09/10 05:24:28;;;;;;;3.23;2.50;;;16.00;99.90;;;;;;5129628;28;20383;-81
2022/09/10 05:27:13;;;;;;;3.63;1.97;;;16.00;99.90;;;;;;5129691;28;20392;-81
2022/09/10 05:29:58;;;;;;;1.40;1.30;;;16.10;99.90;;;;;;5130697;28;20466;-82
2022/09/10 05:32:43;;;;;;;1.90;1.70;;;16.20;99.90;;;;;;5130376;28;20429;-82
2022/09/10 05:35:28;;;;;;;3.50;1.50;;;16.20;99.90;;;;;;5115538;28;20391;-79
2022/09/10 05:38:12;;;;;;;3.20;1.63;;;16.40;99.90;;;;;;5129873;28;20895;-82
2022/09/10 05:40:57;;;;;;;1.40;1.30;;;16.40;99.90;;;;;;5130528;28;20438;-81
2022/09/10 05:43:42;;;;;;;1.50;1.40;;;16.40;99.90;;;;;;5130595;28;20392;-82
2022/09/10 05:46:29;;;;;;;1.40;1.30;;;16.40;99.90;;;;;;5114854;28;20480;-82
2022/09/10 05:49:14;;;;;;;2.80;1.47;;;16.10;99.90;;;;;;5132813;28;20383;-80
2022/09/10 05:51:59;;;;;;;2.23;1.20;;;16.20;99.90;;;;;;5122796;28;20391;-80
2022/09/10 05:54:43;;;;;;;4.17;1.60;;;16.40;99.90;;;;;;5138185;28;20505;-78
2022/09/10 05:57:30;;;;;;;1.30;1.20;;;16.30;99.90;;;;;;5137603;28;20458;-81
2022/09/10 06:00:14;;;;;;;1.70;1.40;;;16.50;99.90;;;;;;5136817;28;20562;-81
2022/09/10 06:02:59;;;;;;;1.30;1.20;;;16.50;99.90;;;;;;5137113;28;20456;-81
2022/09/10 06:05:50;;;;;;;1.20;1.10;;;16.50;99.90;;;;;;5136348;28;20432;-81
2022/09/10 06:08:34;;;;;;;1.30;1.20;;;16.60;99.90;;;;;;5134622;28;20380;-81
2022/09/10 06:11:19;;;;;;;1.80;1.40;;;16.20;99.90;;;;;;5129083;28;20413;-81
2022/09/10 06:14:03;;;;;;;6.10;1.60;;;16.40;99.90;;;;;;5127211;28;20403;-81
2022/09/10 06:16:48;;;;;;;2.30;1.30;;;16.40;99.90;;;;;;5113138;28;20469;-81
2022/09/10 06:19:33;;;;;;;2.13;1.23;;;16.60;99.90;;;;;;5098538;28;20423;-81
2022/09/10 06:22:17;;;;;;;3.13;1.40;;;16.40;99.90;;;;;;5129059;28;20431;-81
2022/09/10 06:25:02;;;;;;;2.70;1.47;;;16.40;99.90;;;;;;5114414;28;20380;-81
2022/09/10 06:27:47;;;;;;;5.80;1.70;;;16.30;99.90;;;;;;5115756;28;20406;-79
2022/09/10 06:30:31;;;;;;;1.13;1.03;;;16.40;99.90;;;;;;5129741;28;20387;-82
2022/09/10 06:33:16;;;;;;;2.60;1.60;;;16.30;99.90;;;;;;5128731;28;20391;-81
2022/09/10 06:36:09;;;;;;;2.03;1.53;;;16.60;99.90;;;;;;5128986;28;20383;-79
2022/09/10 06:38:56;;;;;;;1.50;1.40;;;16.30;99.90;;;;;;5114967;28;20387;-81
2022/09/10 06:41:41;;;;;;;1.60;1.50;;;16.70;99.90;;;;;;5128618;28;20420;-81
2022/09/10 06:44:28;;;;;;;1.30;1.20;;;16.70;99.90;;;;;;5128146;28;20402;-80
2022/09/10 06:47:13;;;;;;;3.40;1.60;;;16.60;99.90;;;;;;5127405;28;20379;-81
2022/09/10 06:49:59;;;;;;;2.23;1.63;;;16.60;99.90;;;;;;5129307;28;20391;-81
2022/09/10 06:52:43;;;;;;;3.03;1.70;;;16.60;99.90;;;;;;5113367;28;20451;-82
2022/09/10 06:55:28;;;;;;;1.77;1.53;;;16.60;99.90;;;;;;5126743;28;20392;-82
2022/09/10 06:58:12;;;;;;;1.73;1.20;;;16.70;99.90;;;;;;5127620;28;20408;-82
2022/09/10 07:00:57;;;;;;;5.40;2.00;;;16.90;99.90;;;;;;5126183;28;20454;-82
2022/09/10 07:03:44;;;;;;;2.10;1.53;;;16.90;99.90;;;;;;5098521;28;20383;-81
2022/09/10 07:06:33;;;;;;;6.73;1.50;;;16.80;99.90;;;;;;5128861;28;20390;-81
2022/09/10 07:09:19;;;;;;;4.20;1.80;;;16.80;99.90;;;;;;5113631;28;20452;-81
2022/09/10 07:12:04;;;;;;;1.90;1.80;;;16.80;99.90;;;;;;5113012;28;20387;-82
2022/09/10 07:14:48;;;;;;;1.57;1.20;;;16.60;99.90;;;;;;5127661;28;20430;-81
2022/09/10 07:17:35;;;;;;;4.20;1.50;;;16.70;99.90;;;;;;5097794;28;20454;-81
2022/09/10 07:20:22;;;;;;;9.13;1.77;;;16.80;99.90;;;;;;5112405;28;20457;-81
2022/09/10 07:23:07;;;;;;;2.67;1.70;;;16.90;99.90;;;;;;5112839;28;20387;-81
2022/09/10 07:25:51;;;;;;;2.47;1.50;;;16.80;99.90;;;;;;5128118;28;20399;-81
2022/09/10 07:28:37;;;;;;;2.70;1.87;;;16.80;99.90;;;;;;5111941;28;20399;-81
2022/09/10 07:31:26;;;;;;;1.90;1.50;;;16.80;99.90;;;;;;5123589;28;20441;-81
2022/09/10 07:34:11;;;;;;;1.50;1.40;;;16.90;99.90;;;;;;5123508;28;20398;-81
2022/09/10 07:36:55;;;;;;;1.40;1.30;;;17.10;99.90;;;;;;5123698;28;20387;-82
2022/09/10 07:39:41;;;;;;;1.93;1.33;;;16.90;99.90;;;;;;5123823;28;20954;-82
2022/09/10 07:42:28;;;;;;;1.70;1.60;;;17.00;99.90;;;;;;5123844;28;20403;-81
2022/09/10 07:45:14;;;;;;;2.00;1.90;;;16.80;99.90;;;;;;5124179;28;20387;-82
2022/09/10 07:47:59;;;;;;;1.30;1.20;;;17.10;99.90;;;;;;5109020;28;20709;-81
2022/09/10 07:50:44;;;;;;;1.53;1.43;;;17.30;99.90;;;;;;5124251;28;20391;-80
2022/09/10 07:53:28;;;;;;;4.10;2.10;;;17.50;99.90;;;;;;5124383;28;20964;-82
2022/09/10 07:56:13;;;;;;;1.50;1.40;;;17.30;99.90;;;;;;5124466;28;20430;-81
2022/09/10 07:58:58;;;;;;;5.53;1.93;;;17.20;99.90;;;;;;5123642;28;20857;-82
2022/09/10 08:01:43;;;;;;;2.80;1.53;;;17.20;99.90;;;;;;5123649;28;20390;-81
2022/09/10 08:04:31;;;;;;;2.13;1.33;;;17.40;99.90;;;;;;5123635;28;20437;-82
2022/09/10 08:07:16;;;;;;;1.70;1.30;;;17.60;99.90;;;;;;5122839;28;20392;-81
2022/09/10 08:10:01;;;;;;;2.30;1.67;;;17.70;99.90;;;;;;5109030;28;20476;-83
2022/09/10 08:12:46;;;;;;;1.43;1.20;;;17.70;99.90;;;;;;5130760;28;20461;-81
2022/09/10 08:15:30;;;;;;;2.37;1.60;;;17.40;99.90;;;;;;5115163;28;20398;-80
2022/09/10 08:18:16;;;;;;;1.50;1.40;;;17.60;99.90;;;;;;5130443;28;20477;-81
2022/09/10 08:21:01;;;;;;;1.70;1.60;;;17.80;99.90;;;;;;5115304;28;20446;-83
2022/09/10 08:23:49;;;;;;;3.20;2.17;;;18.00;99.90;;;;;;5131044;28;20453;-81
2022/09/10 08:26:33;;;;;;;1.67;1.50;;;18.20;99.90;;;;;;5111899;28;20434;-81
2022/09/10 08:29:18;;;;;;;3.47;1.50;;;17.80;99.90;;;;;;5112455;28;20720;-82
2022/09/10 08:32:04;;;;;;;2.23;2.03;;;17.70;99.90;;;;;;5127969;28;20465;-82
2022/09/10 08:34:48;;;;;;;4.93;1.90;;;17.50;99.90;;;;;;5112615;28;20383;-80
2022/09/10 08:37:33;;;;;;;2.00;1.80;;;17.70;99.90;;;;;;5107022;28;20474;-81
2022/09/10 08:40:18;;;;;;;1.77;1.67;;;17.50;99.90;;;;;;5127175;28;20462;-81
2022/09/10 08:43:02;;;;;;;2.90;1.60;;;17.70;99.90;;;;;;5127217;28;20433;-82
2022/09/10 08:45:53;;;;;;;1.70;1.60;;;17.90;99.90;;;;;;5128791;28;20402;-82
2022/09/10 08:48:39;;;;;;;1.87;1.50;;;17.80;99.90;;;;;;5112777;28;20380;-82
2022/09/10 08:51:28;;;;;;;2.90;1.40;;;17.80;99.90;;;;;;5128922;28;20394;-83
2022/09/10 08:54:18;;;;;;;2.70;1.93;;;17.80;99.90;;;;;;5127340;28;20379;-82
2022/09/10 08:57:11;;;;;;;1.50;1.30;;;18.00;99.90;;;;;;5112686;28;20430;-82
2022/09/10 08:59:58;;;;;;;3.20;1.50;;;18.20;99.90;;;;;;5113010;28;20454;-84
2022/09/10 09:03:01;;;;;;;2.53;1.60;;;18.40;99.90;;;;;;5111981;28;20384;-82
2022/09/10 09:05:50;;;;;;;4.77;2.57;;;18.40;99.90;;;;;;5127151;28;20709;-82
2022/09/10 09:08:40;;;;;;;1.40;1.30;;;18.10;99.90;;;;;;5126686;28;20387;-82
2022/09/10 09:11:52;;;;;;;1.93;1.30;;;18.20;99.90;;;;;;5128032;28;20421;-82
2022/09/10 09:14:55;;;;;;;2.40;1.30;;;18.20;99.90;;;;;;5116309;28;20441;-83
2022/09/10 09:18:10;;;;;;;1.70;1.60;;;18.30;99.90;;;;;;5128161;28;20450;-82
2022/09/10 09:20:59;;;;;;;1.47;1.37;;;18.20;99.90;;;;;;5115026;28;20450;-82
2022/09/10 09:23:54;;;;;;;2.97;1.90;;;18.30;99.90;;;;;;5134803;28;20371;-80
2022/09/10 09:26:39;;;;;;;1.60;1.50;;;18.60;99.90;;;;;;5135998;28;20413;-84
2022/09/10 09:29:50;;;;;;;1.43;1.33;;;18.80;99.90;;;;;;5134573;28;20379;-79
2022/09/10 09:32:39;;;;;;;1.67;1.50;;;18.60;99.90;;;;;;5134811;28;20546;-79
2022/09/10 09:35:31;;;;;;;2.23;2.07;;;18.70;99.90;;;;;;5134439;28;20447;-79
2022/09/10 09:38:26;;;;;;;1.67;1.58;;;18.30;99.90;;;;;;5128713;28;20340;-82
2022/09/10 09:41:37;;;;;;;6.93;1.50;;;18.40;99.90;;;;;;5127226;28;20537;-82
2022/09/10 09:44:30;;;;;;;2.40;1.70;;;18.70;99.90;;;;;;5126121;28;20460;-83
2022/09/10 09:47:14;;;;;;;1.50;1.40;;;19.60;99.90;;;;;;5126523;28;20375;-81
2022/09/10 09:49:59;;;;;;;1.70;1.60;;;20.00;99.90;;;;;;5127342;28;20399;-81
2022/09/10 09:52:44;;;;;;;1.70;1.60;;;19.60;99.90;;;;;;5128112;28;20387;-81
2022/09/10 09:55:40;;;;;;;1.40;1.30;;;19.80;99.90;;;;;;5128958;28;20437;-81
2022/09/10 09:58:28;;;;;;;1.77;1.50;;;19.90;99.90;;;;;;5114093;28;20391;-84
2022/09/10 10:01:16;;;;;;;1.60;1.50;;;19.70;99.90;;;;;;5128107;28;20512;-82
2022/09/10 10:04:01;;;;;;;2.87;1.50;;;19.70;99.90;;;;;;5127641;28;20441;-81
2022/09/10 10:06:54;;;;;;;1.40;1.30;;;19.50;99.90;;;;;;5126660;28;20414;-84
2022/09/10 10:09:42;;;;;;;1.70;1.40;;;19.60;99.90;;;;;;5126205;28;20386;-83
2022/09/10 10:12:32;;;;;;;1.20;1.10;;;19.60;99.90;;;;;;5096556;28;20414;-82
2022/09/10 10:15:35;;;;;;;1.63;1.20;;;19.20;99.90;;;;;;5110988;28;20390;-82
2022/09/10 10:18:31;;;;;;;1.30;1.13;;;19.20;99.90;;;;;;5125634;28;20457;-81
2022/09/10 10:21:19;;;;;;;4.80;1.50;;;19.20;99.90;;;;;;5128206;28;20463;-82
2022/09/10 10:24:04;;;;;;;1.67;1.40;;;18.90;99.90;;;;;;5125311;28;20387;-83
2022/09/10 10:26:49;;;;;;;1.50;1.40;;;18.90;99.90;;;;;;5126977;28;20439;-83
2022/09/10 10:29:34;;;;;;;1.77;1.40;;;18.60;99.90;;;;;;5125224;28;20414;-82
2022/09/10 10:32:19;;;;;;;2.00;1.27;;;19.00;99.90;;;;;;5125842;28;20387;-82
2022/09/10 10:35:34;;;;;;;1.57;1.47;;;18.90;99.90;;;;;;5124300;28;20483;-82
2022/09/10 10:38:29;;;;;;;1.87;1.77;;;19.10;99.90;;;;;;5124730;28;20391;-82
2022/09/10 10:41:35;;;;;;;1.60;1.23;;;19.20;99.90;;;;;;5125538;28;20442;-82
2022/09/10 10:44:32;;;;;;;1.30;1.20;;;19.40;99.90;;;;;;5117437;28;20402;-81
2022/09/10 10:47:33;;;;;;;1.33;1.17;;;19.20;99.90;;;;;;5105853;28;20395;-80
2022/09/10 10:50:30;;;;;;;1.73;1.40;;;19.10;99.90;;;;;;5122031;28;20383;-81
2022/09/10 10:53:36;;;;;;;4.70;1.40;;;18.70;99.90;;;;;;5120279;28;20444;-82
2022/09/10 10:56:39;;;;;;;3.43;1.90;;;18.70;99.90;;;;;;5118181;28;20461;-81
2022/09/10 11:00:02;;;;;;;1.40;1.30;;;18.70;99.90;;;;;;5118837;28;20523;-79
2022/09/10 11:03:03;;;;;;;2.13;1.93;;;19.20;99.90;;;;;;5117988;28;20429;-79
2022/09/10 11:05:54;;;;;;;1.73;1.63;;;19.60;99.90;;;;;;5105722;28;20390;-81
2022/09/10 11:08:49;;;;;;;1.83;1.60;;;19.80;99.90;;;;;;5074040;28;20469;-80
2022/09/10 11:11:56;;;;;;;2.00;1.37;;;20.30;99.90;;;;;;5105916;28;20391;-80
2022/09/10 11:15:11;;;;;;;6.93;1.80;;;21.40;99.90;;;;;;5117481;28;20375;-81
2022/09/10 11:18:12;;;;;;;2.13;1.93;;;22.00;99.90;;;;;;5113386;28;20454;-80
2022/09/10 11:21:15;;;;;;;2.67;2.07;;;21.80;99.90;;;;;;5094230;28;20430;-80
2022/09/10 11:24:14;;;;;;;2.60;1.60;;;22.30;99.90;;;;;;5123186;28;20415;-81
2022/09/10 11:27:13;;;;;;;1.57;1.47;;;21.40;99.90;;;;;;5106844;28;20418;-80
2022/09/10 11:30:05;;;;;;;3.50;2.00;;;22.40;99.90;;;;;;5106197;28;20469;-80
2022/09/10 11:33:14;;;;;;;2.27;1.90;;;22.40;99.90;;;;;;5107040;28;20440;-80
2022/09/10 11:36:24;;;;;;;1.93;1.73;;;22.40;99.90;;;;;;5122723;28;20407;-80
2022/09/10 11:39:24;;;;;;;1.97;1.50;;;21.90;99.90;;;;;;5122238;28;20383;-80
2022/09/10 11:42:23;;;;;;;2.83;1.57;;;21.40;99.90;;;;;;5092330;28;20434;-81
2022/09/10 11:45:35;;;;;;;3.20;1.80;;;22.30;99.90;;;;;;5123745;28;20383;-80
2022/09/10 11:48:31;;;;;;;2.47;1.90;;;21.90;99.90;;;;;;5101546;28;20429;-80
2022/09/10 11:51:25;;;;;;;1.73;1.63;;;22.10;99.90;;;;;;5081253;28;20495;-80
2022/09/10 11:54:16;;;;;;;1.57;1.47;;;22.70;99.90;;;;;;5020724;28;20415;-80
2022/09/10 11:57:25;;;;;;;3.10;2.37;;;23.10;99.90;;;;;;5025598;28;20438;-78
2022/09/10 12:00:16;;;;;;;2.00;1.90;;;21.40;99.90;;;;;;5008971;28;20478;-81
2022/09/10 12:03:20;;;;;;;3.20;2.20;;;20.60;99.90;;;;;;4952847;28;20411;-81
2022/09/10 12:06:22;;;;;;;4.13;1.83;;;20.80;99.90;;;;;;4986735;28;20776;-81
2022/09/10 12:09:27;;;;;;;6.00;2.93;;;21.50;99.90;;;;;;4986872;28;20407;-81
2022/09/10 12:12:22;;;;;;;2.90;2.13;;;21.20;99.90;;;;;;4986715;28;20408;-81
2022/09/10 12:15:18;;;;;;;3.10;1.97;;;21.60;99.90;;;;;;4916355;29;20415;-79
2022/09/10 12:18:12;;;;;;;2.67;2.30;;;21.50;99.90;;;;;;4943160;29;20503;-82
2022/09/10 12:21:02;;;;;;;2.37;2.10;;;21.20;99.90;;;;;;4945144;28;20458;-81
2022/09/10 12:23:48;;;;;;;2.63;2.40;;;21.60;99.90;;;;;;4949645;28;20431;-80
2022/09/10 12:26:45;;;;;;;4.00;1.80;;;21.80;99.90;;;;;;4982749;28;20425;-81
2022/09/10 12:29:34;;;;;;;1.97;1.77;;;21.80;99.90;;;;;;4981347;28;20412;-80
2022/09/10 12:32:30;;;;;;;4.63;1.57;;;21.90;99.90;;;;;;4966665;28;20401;-80
2022/09/10 12:35:42;;;;;;;2.80;1.70;;;21.90;99.90;;;;;;4994086;28;20576;-82
2022/09/10 12:39:02;;;;;;;2.33;1.60;;;21.60;99.90;;;;;;4990703;28;20432;-81
2022/09/10 12:41:57;;;;;;;1.80;1.70;;;21.50;99.90;;;;;;5000333;28;20809;-81
2022/09/10 12:44:44;;;;;;;2.63;1.80;;;21.50;99.90;;;;;;5002028;28;20404;-79
2022/09/10 12:47:39;;;;;;;2.30;1.70;;;21.60;99.90;;;;;;5019604;28;20795;-81
2022/09/10 12:50:30;;;;;;;2.97;1.70;;;21.50;99.90;;;;;;5005083;28;20494;-80
2022/09/10 12:53:36;;;;;;;2.10;1.83;;;21.70;99.90;;;;;;4960728;28;20950;-81
2022/09/10 12:56:47;;;;;;;1.70;1.60;;;22.10;99.90;;;;;;4960146;28;20418;-81
2022/09/10 12:59:57;;;;;;;5.03;1.60;;;22.00;99.90;;;;;;4964509;29;20994;-82
2022/09/10 13:02:57;;;;;;;2.13;1.43;;;22.00;99.90;;;;;;4936869;29;20453;-79
2022/09/10 13:05:58;;;;;;;1.80;1.70;;;22.00;99.90;;;;;;4967288;28;20401;-81
2022/09/10 13:08:46;;;;;;;1.87;1.67;;;22.80;99.90;;;;;;4998930;28;20417;-79
2022/09/10 13:11:35;;;;;;;1.50;1.40;;;22.70;99.90;;;;;;5038980;28;20379;-80
2022/09/10 13:14:31;;;;;;;1.73;1.30;;;23.00;99.90;;;;;;5035577;28;20450;-81
2022/09/10 13:17:37;;;;;;;5.37;1.70;;;23.30;99.90;;;;;;5018813;28;20479;-81
2022/09/10 13:20:34;;;;;;;1.60;1.50;;;23.20;99.90;;;;;;5010857;28;20530;-81
2022/09/10 13:23:22;;;;;;;1.97;1.87;;;23.00;99.90;;;;;;5034502;28;20456;-80
2022/09/10 13:26:43;;;;;;;1.77;1.67;;;22.80;99.90;;;;;;5044831;28;20418;-80
2022/09/10 13:29:31;;;;;;;1.77;1.60;;;22.50;99.90;;;;;;5035798;28;20432;-79
2022/09/10 13:32:43;;;;;;;2.97;2.13;;;23.00;99.90;;;;;;5022128;28;20451;-79
2022/09/10 13:36:10;;;;;;;2.13;1.60;;;23.90;99.90;;;;;;4985082;28;20481;-79
2022/09/10 13:39:33;;;;;;;2.27;1.47;;;24.30;99.90;;;;;;4975934;28;20425;-80
2022/09/10 13:43:00;;;;;;;4.20;1.40;;;24.00;99.90;;;;;;4973503;28;20429;-81
2022/09/10 13:45:52;;;;;;;3.00;1.40;;;23.50;99.90;;;;;;4990544;28;20427;-80
2022/09/10 13:48:51;;;;;;;1.80;1.43;;;22.70;99.90;;;;;;5009628;28;20396;-82
2022/09/10 13:51:50;;;;;;;3.10;1.57;;;22.30;99.90;;;;;;4988560;28;20421;-81
2022/09/10 13:54:42;;;;;;;1.97;1.53;;;22.20;99.90;;;;;;4990213;28;20404;-82
2022/09/10 13:57:32;;;;;;;2.50;1.50;;;22.00;99.90;;;;;;4981990;28;20515;-81
2022/09/10 14:00:24;;;;;;;3.60;1.90;;;21.70;99.90;;;;;;4978679;28;20461;-81
2022/09/10 14:03:22;;;;;;;3.47;1.60;;;21.60;99.90;;;;;;4969480;28;20446;-81
2022/09/10 14:06:27;;;;;;;3.07;1.53;;;21.80;99.90;;;;;;4983734;28;20483;-81
2022/09/10 14:09:13;;;;;;;2.20;1.17;;;22.10;99.90;;;;;;4983031;28;20412;-81
2022/09/10 14:12:01;;;;;;;2.07;1.33;;;22.20;99.90;;;;;;5019127;28;20400;-80
2022/09/10 14:15:15;;;;;;;2.33;1.60;;;22.40;99.90;;;;;;5042234;28;20438;-81
2022/09/10 14:18:01;;;;;;;2.13;1.60;;;22.70;99.90;;;;;;4987325;28;20579;-81
2022/09/10 14:20:46;;;;;;;1.83;1.67;;;22.80;99.90;;;;;;5002696;28;20475;-79
2022/09/10 14:23:32;;;;;;;1.93;1.73;;;22.60;99.90;;;;;;5028308;28;20783;-81
2022/09/10 14:26:23;;;;;;;1.40;1.30;;;22.20;99.90;;;;;;5024139;28;20481;-81
2022/09/10 14:29:27;;;;;;;2.10;1.83;;;22.00;99.90;;;;;;5029714;28;20403;-79
2022/09/10 14:32:36;;;;;;;3.80;1.53;;;21.60;99.90;;;;;;5028816;28;20403;-80
2022/09/10 14:35:36;;;;;;;1.40;1.23;;;21.30;99.90;;;;;;5001746;28;20420;-80
2022/09/10 14:38:26;;;;;;;2.33;1.60;;;21.00;99.90;;;;;;5003662;28;20420;-79
2022/09/10 14:41:23;;;;;;;1.33;1.23;;;20.40;99.90;;;;;;4976566;28;20468;-82
2022/09/10 14:44:29;;;;;;;1.67;1.57;;;19.60;99.90;;;;;;4965642;29;20455;-80
2022/09/10 14:47:28;;;;;;;1.40;1.30;;;19.50;99.90;;;;;;4944350;29;20423;-81
2022/09/10 14:50:27;;;;;;;1.63;1.50;;;19.50;99.90;;;;;;4951465;28;20426;-81
2022/09/10 14:53:11;;;;;;;1.30;1.20;;;19.20;99.90;;;;;;4928949;29;20408;-78